Harrison, AR (72601)

7:37 PM CDT on October 24, 2014 (GMT -0500)
AJ5C - Northwest Harrison | Change Station
CLOSE
Current Station
Personal Weather Station
Location: Harrison, AR
Elevation: 1266 ft
Nearby Weather Stations

Elev 1266 ft 36.26 °N, 93.15 °W | Updated 5 seconds ago

Clear
Clear
64.8 °F
Feels Like 64.8 °F
N
0.0
Wind Variable Wind from NNE
Gusts 0.0 mph

Today
High -- | Low -- °F
--% Chance of Precip.
Yesterday
High -- | Low -- °F
Precip. -- in
7:27 AM 6:25 PM
New Moon, 1% visible
Pressure 30.06 in
Visibility 10.0 miles
Clouds Clear
Dew Point 63 °F
Humidity 93%
Rainfall 0.00 in
Snow Depth Not available.
UV 0 out of 12
Pollen 2.70 out of 12
Air Quality Not available.
Flu Activity Sporadic
METAR KHRO 242353Z AUTO 00000KT 10SM CLR 19/16 A3008 RMK AO2 SLP180 T01940161 10256 20194 53001

More Conditions Fewer Conditions

Pressure 30.06 in
Visibility 10.0 miles
Clouds Clear
Dew Point 63 °F
Humidity 93%
Rainfall 0.00 in
Snow Depth Not available.
UV 0 out of 12
Pollen 2.70 out of 12
Air Quality Not available.
Flu Activity Sporadic
METAR KHRO 242353Z AUTO 00000KT 10SM CLR 19/16 A3008 RMK AO2 SLP180 T01940161 10256 20194 53001

More Conditions Fewer Conditions

10-Day Weather Forecast

Almanac

Astronomy

Oct. 24, 2014 Rise Set
Actual Time 7:27 AM CDT 6:25 PM CDT
Civil Twilight 7:01 AM CDT 6:51 PM CDT
Nautical Twilight 6:31 AM CDT 7:21 PM CDT
Astronomical Twilight 6:01 AM CDT 7:51 PM CDT
Moon 8:06 AM CDT (10/24) 7:06 PM CDT (10/24)
Length of Visible Light 11h 49m
Length of Day
10h 57m
Tomorrow will be 2m 7s shorter.
New Moon, 1% of the Moon is Illuminated
Today
New Moon
Oct 30
First Quarter
Nov 6
Full
Nov 14
Last Quarter
Nov 22
New

Today's Extremes

State Highs State Lows

Community

WunderPhotos

Upload Photos

1,764,727 photos uploaded!

WunderBlogs® & News

Nearby

Snow Depth

Station Depth Elevation
No new snow has been reported.

Earthquake Activity

City Distance Mag. Time & Date
No recent earthquake activity has been reported nearby.
Minimum magnitude displayed is 2.5.

Coastal Water Temperatures

Place Temperature
No Stations Reporting

Nearby Weather Stations